Time;durP1;ratioP1;P1;durP2;ratioP2;P2;SDS_P1;SDS_P2;PMS_P1;PMS_P2;Temp;Humidity;BMP_temperature;BMP_pressure;BME280_temperature;BME280_humidity;BME280_pressure;Samples;Min_cycle;Max_cycle;Signal;HPM_P1;HPM_P2
2021/09/01 00:00:38;;;;;;;9.67;7.10;;;12.70;99.90;;;;;;5051680;28;20205;-61
2021/09/01 00:03:05;;;;;;;7.70;6.90;;;12.60;99.90;;;;;;5051406;28;20353;-61
2021/09/01 00:05:33;;;;;;;9.73;6.17;;;12.60;99.90;;;;;;5051530;28;20604;-63
2021/09/01 00:08:00;;;;;;;7.60;6.60;;;12.60;99.90;;;;;;5051717;28;20665;-62
2021/09/01 00:10:27;;;;;;;12.63;6.57;;;12.60;99.90;;;;;;5051470;28;20596;-61
2021/09/01 00:12:54;;;;;;;9.27;6.50;;;12.60;99.90;;;;;;5051764;28;20217;-62
2021/09/01 00:15:21;;;;;;;8.27;6.17;;;12.50;99.90;;;;;;5051226;28;20238;-61
2021/09/01 00:17:47;;;;;;;6.87;6.17;;;12.50;99.90;;;;;;5051105;28;20701;-60
2021/09/01 00:20:14;;;;;;;7.10;6.30;;;12.50;99.90;;;;;;5051167;28;20665;-61
2021/09/01 00:22:42;;;;;;;8.73;6.30;;;12.50;99.90;;;;;;5051096;28;20673;-61
2021/09/01 00:25:10;;;;;;;11.30;6.47;;;12.50;99.90;;;;;;5050928;28;20233;-61
2021/09/01 00:27:37;;;;;;;7.97;6.80;;;12.50;99.90;;;;;;5050915;28;20723;-62
2021/09/01 00:30:04;;;;;;;8.00;6.83;;;12.50;99.90;;;;;;5051074;28;20209;-60
2021/09/01 00:32:31;;;;;;;7.67;6.70;;;12.50;99.90;;;;;;5051133;28;20205;-61
2021/09/01 00:34:58;;;;;;;8.57;7.13;;;12.40;99.90;;;;;;5050929;28;20232;-61
2021/09/01 00:37:25;;;;;;;8.23;6.50;;;12.40;99.90;;;;;;5050707;28;20749;-61
2021/09/01 00:39:53;;;;;;;7.43;6.67;;;12.40;99.90;;;;;;5050782;28;20274;-61
2021/09/01 00:42:19;;;;;;;9.57;6.50;;;12.40;99.90;;;;;;5050697;28;20216;-61
2021/09/01 00:44:46;;;;;;;8.53;6.37;;;12.30;99.90;;;;;;5050527;28;20228;-61
2021/09/01 00:47:17;;;;;;;8.60;6.70;;;12.30;99.90;;;;;;5051050;28;20240;-61
2021/09/01 00:49:43;;;;;;;9.17;6.77;;;12.30;99.90;;;;;;5051207;28;20209;-61
2021/09/01 00:52:12;;;;;;;8.80;6.63;;;12.30;99.90;;;;;;5051093;28;20681;-61
2021/09/01 00:54:39;;;;;;;8.97;6.60;;;12.30;99.90;;;;;;5050862;28;20252;-61
2021/09/01 00:57:08;;;;;;;7.67;6.70;;;12.30;99.90;;;;;;5050540;28;20225;-61
2021/09/01 00:59:38;;;;;;;8.30;6.60;;;12.30;99.90;;;;;;5050710;28;20258;-61
2021/09/01 01:02:06;;;;;;;6.87;6.20;;;12.30;99.90;;;;;;5050868;28;20665;-61
2021/09/01 01:04:33;;;;;;;7.57;6.40;;;12.30;99.90;;;;;;5050437;28;20225;-61
2021/09/01 01:07:01;;;;;;;9.73;5.97;;;12.20;99.90;;;;;;5050444;28;20216;-61
2021/09/01 01:09:28;;;;;;;8.80;6.40;;;12.30;99.90;;;;;;5050806;28;20287;-61
2021/09/01 01:12:03;;;;;;;8.53;6.30;;;12.30;99.90;;;;;;5050659;28;20739;-61
2021/09/01 01:14:32;;;;;;;8.70;6.13;;;12.30;99.90;;;;;;5050462;28;20224;-61
2021/09/01 01:16:59;;;;;;;8.23;6.63;;;12.20;99.90;;;;;;5050574;28;20225;-61
2021/09/01 01:19:26;;;;;;;9.43;5.97;;;12.20;99.90;;;;;;5050396;28;20249;-61
2021/09/01 01:21:52;;;;;;;7.93;6.30;;;12.20;99.90;;;;;;5050448;28;20627;-61
2021/09/01 01:24:19;;;;;;;6.93;6.23;;;12.20;99.90;;;;;;5049949;28;20216;-61
2021/09/01 01:26:47;;;;;;;7.30;6.33;;;12.20;99.90;;;;;;5050541;28;20684;-61
2021/09/01 01:29:14;;;;;;;7.13;6.37;;;12.20;99.90;;;;;;5050388;28;20217;-61
2021/09/01 01:31:41;;;;;;;7.00;6.07;;;12.20;99.90;;;;;;5050424;28;20209;-61
2021/09/01 01:34:13;;;;;;;7.03;6.00;;;12.10;99.90;;;;;;5050106;28;20205;-61
2021/09/01 01:36:40;;;;;;;7.20;6.50;;;12.10;99.90;;;;;;5050190;28;20317;-61
2021/09/01 01:39:07;;;;;;;6.87;6.20;;;12.10;99.90;;;;;;5049912;28;20209;-61
2021/09/01 01:41:33;;;;;;;7.70;5.90;;;12.10;99.90;;;;;;5050437;28;20210;-61
2021/09/01 01:44:01;;;;;;;7.70;6.90;;;12.00;99.90;;;;;;5050274;28;20205;-61
2021/09/01 01:46:28;;;;;;;8.73;7.40;;;12.00;99.90;;;;;;5050101;28;20228;-61
2021/09/01 01:48:55;;;;;;;9.17;6.67;;;12.00;99.90;;;;;;5050423;28;20233;-61
2021/09/01 01:51:21;;;;;;;8.97;6.43;;;12.00;99.90;;;;;;5050502;28;20216;-61
2021/09/01 01:53:48;;;;;;;7.33;6.03;;;11.90;99.90;;;;;;5050301;28;20259;-61
2021/09/01 01:56:15;;;;;;;7.07;6.37;;;12.00;99.90;;;;;;5054752;28;20229;-61
2021/09/01 01:58:41;;;;;;;6.77;6.07;;;12.00;99.90;;;;;;5053853;28;20558;-61
2021/09/01 02:01:09;;;;;;;6.40;5.80;;;12.00;99.90;;;;;;5054265;28;20566;-61
2021/09/01 02:03:36;;;;;;;6.30;5.70;;;12.00;99.90;;;;;;5054134;28;20216;-61
2021/09/01 02:06:03;;;;;;;6.63;5.93;;;11.90;99.90;;;;;;5054230;28;20319;-61
2021/09/01 02:08:29;;;;;;;6.50;5.37;;;11.90;99.90;;;;;;5053892;28;20224;-60
2021/09/01 02:10:56;;;;;;;6.67;5.97;;;11.90;99.90;;;;;;5053960;28;20214;-61
2021/09/01 02:13:23;;;;;;;8.30;6.43;;;11.90;99.90;;;;;;5053774;28;20270;-62
2021/09/01 02:15:49;;;;;;;8.67;5.93;;;11.90;99.90;;;;;;5053698;28;20320;-61
2021/09/01 02:18:17;;;;;;;6.77;6.07;;;11.90;99.90;;;;;;5053416;28;20229;-60
2021/09/01 02:20:44;;;;;;;6.83;5.93;;;11.90;99.90;;;;;;5053822;28;20216;-61
2021/09/01 02:23:11;;;;;;;6.40;5.77;;;11.90;99.90;;;;;;5053627;28;20387;-60
2021/09/01 02:25:37;;;;;;;7.30;5.90;;;11.80;99.90;;;;;;5053429;28;20241;-60
2021/09/01 02:28:04;;;;;;;6.70;6.00;;;11.80;99.90;;;;;;5053300;28;20251;-60
2021/09/01 02:30:31;;;;;;;7.07;6.27;;;11.80;99.90;;;;;;5053292;28;20212;-60
2021/09/01 02:32:58;;;;;;;6.77;6.07;;;11.80;99.90;;;;;;5053722;28;20209;-61
2021/09/01 02:35:26;;;;;;;6.87;6.17;;;11.80;99.90;;;;;;5053197;28;20225;-60
2021/09/01 02:37:53;;;;;;;6.47;5.87;;;11.70;99.90;;;;;;5053146;28;20229;-60
2021/09/01 02:40:20;;;;;;;6.37;5.70;;;11.70;99.90;;;;;;5053246;28;20201;-60
2021/09/01 02:42:47;;;;;;;6.53;5.93;;;11.70;99.90;;;;;;5053082;28;20616;-61
2021/09/01 02:45:16;;;;;;;6.43;5.80;;;11.60;99.90;;;;;;5052786;28;20225;-61
2021/09/01 02:47:43;;;;;;;6.77;6.07;;;11.60;99.90;;;;;;5052881;28;20462;-61
2021/09/01 02:50:11;;;;;;;6.33;5.73;;;11.70;99.90;;;;;;5053227;28;20209;-61
2021/09/01 02:52:39;;;;;;;6.27;5.67;;;11.60;99.90;;;;;;5053046;28;20233;-61
2021/09/01 02:55:06;;;;;;;6.40;5.67;;;11.60;99.90;;;;;;5052745;28;20228;-61
2021/09/01 02:57:33;;;;;;;8.40;5.93;;;11.60;99.90;;;;;;5052822;28;20221;-61
2021/09/01 03:00:00;;;;;;;6.87;6.17;;;11.60;99.90;;;;;;5052569;28;20209;-61
2021/09/01 03:02:26;;;;;;;8.93;6.80;;;11.60;99.90;;;;;;5053026;28;20259;-61
2021/09/01 03:04:53;;;;;;;7.20;6.07;;;11.60;99.90;;;;;;5052273;28;20230;-61
2021/09/01 03:07:20;;;;;;;6.87;6.17;;;11.50;99.90;;;;;;5052858;28;20725;-61
2021/09/01 03:09:48;;;;;;;6.60;5.87;;;11.50;99.90;;;;;;5052527;28;20210;-61
2021/09/01 03:12:14;;;;;;;6.40;5.80;;;11.50;99.90;;;;;;5052843;28;20206;-61
2021/09/01 03:14:41;;;;;;;7.27;6.03;;;11.50;99.90;;;;;;5052242;28;20236;-61
2021/09/01 03:17:08;;;;;;;7.40;6.10;;;11.50;99.90;;;;;;5052886;28;20225;-61
2021/09/01 03:19:34;;;;;;;6.57;5.87;;;11.50;99.90;;;;;;5052536;28;20665;-61
2021/09/01 03:22:01;;;;;;;6.87;5.80;;;11.50;99.90;;;;;;5053364;28;20555;-61
2021/09/01 03:24:28;;;;;;;6.60;6.00;;;11.40;99.90;;;;;;5052900;28;20249;-61
2021/09/01 03:26:56;;;;;;;7.00;6.13;;;11.40;99.90;;;;;;5052621;28;20628;-61
2021/09/01 03:29:22;;;;;;;6.30;5.63;;;11.40;99.90;;;;;;5052097;28;20673;-61
2021/09/01 03:31:49;;;;;;;6.13;5.53;;;11.40;99.90;;;;;;5052521;28;20206;-61
2021/09/01 03:34:16;;;;;;;6.60;5.60;;;11.30;99.90;;;;;;5052398;28;20208;-61
2021/09/01 03:36:43;;;;;;;5.87;5.17;;;11.20;99.90;;;;;;5052394;28;20201;-61
2021/09/01 03:39:10;;;;;;;6.83;6.13;;;11.20;99.90;;;;;;5051909;28;20213;-61
2021/09/01 03:41:36;;;;;;;7.67;5.93;;;11.20;99.90;;;;;;5052010;28;20227;-61
2021/09/01 03:44:05;;;;;;;6.70;5.90;;;11.20;99.90;;;;;;5051882;28;20309;-61
2021/09/01 03:46:32;;;;;;;7.17;6.17;;;11.20;99.90;;;;;;5052219;28;20213;-61
2021/09/01 03:48:59;;;;;;;7.53;5.90;;;11.20;99.90;;;;;;5051939;28;20205;-62
2021/09/01 03:51:26;;;;;;;7.07;6.37;;;11.20;99.90;;;;;;5051944;28;20209;-61
2021/09/01 03:53:52;;;;;;;6.80;6.13;;;11.20;99.90;;;;;;5051847;28;20260;-61
2021/09/01 03:56:19;;;;;;;7.07;5.67;;;11.20;99.90;;;;;;5051565;28;20226;-61
2021/09/01 03:58:45;;;;;;;6.60;5.73;;;11.20;99.90;;;;;;5051307;28;20229;-62
2021/09/01 04:01:14;;;;;;;12.43;6.07;;;11.20;99.90;;;;;;5051730;28;20221;-62
2021/09/01 04:03:40;;;;;;;6.30;5.70;;;11.20;99.90;;;;;;5051387;28;20210;-62
2021/09/01 04:06:07;;;;;;;9.17;6.37;;;11.20;99.90;;;;;;5051370;28;20225;-62
2021/09/01 04:08:33;;;;;;;6.37;5.77;;;11.20;99.90;;;;;;5051519;28;20209;-62
2021/09/01 04:11:00;;;;;;;9.20;5.80;;;11.20;99.90;;;;;;5051225;28;20267;-62
2021/09/01 04:13:27;;;;;;;8.47;6.13;;;11.20;99.90;;;;;;5051343;28;20206;-62
2021/09/01 04:15:53;;;;;;;7.73;5.80;;;11.20;99.90;;;;;;5051264;28;20288;-61
2021/09/01 04:18:21;;;;;;;6.60;5.83;;;11.20;99.90;;;;;;5050401;28;20233;-61
2021/09/01 04:20:48;;;;;;;6.63;5.90;;;11.20;99.90;;;;;;5051263;28;20208;-61
2021/09/01 04:23:15;;;;;;;14.37;9.23;;;11.30;99.90;;;;;;5051231;28;20205;-61
2021/09/01 04:25:41;;;;;;;11.20;7.07;;;11.30;99.90;;;;;;5050647;28;20229;-61
2021/09/01 04:28:08;;;;;;;13.57;7.50;;;11.30;99.90;;;;;;5050990;28;20391;-62
2021/09/01 04:30:35;;;;;;;7.80;7.00;;;11.40;99.90;;;;;;5051435;28;20243;-62
2021/09/01 04:33:02;;;;;;;10.77;7.80;;;11.40;99.90;;;;;;5051139;28;20213;-61
2021/09/01 04:35:30;;;;;;;9.47;7.30;;;11.50;99.90;;;;;;5050722;28;20264;-61
2021/09/01 04:37:56;;;;;;;12.47;7.27;;;11.50;99.90;;;;;;5050401;28;20267;-61
2021/09/01 04:40:23;;;;;;;8.27;7.03;;;11.50;99.90;;;;;;5050908;28;20216;-61
2021/09/01 04:42:50;;;;;;;9.30;7.17;;;11.60;99.90;;;;;;5050683;28;20205;-62
2021/09/01 04:45:16;;;;;;;8.67;6.90;;;11.60;99.90;;;;;;5050724;28;20229;-62
2021/09/01 04:47:43;;;;;;;7.83;7.03;;;11.70;99.90;;;;;;5050221;28;20208;-62
2021/09/01 04:50:11;;;;;;;35.27;6.63;;;11.80;99.90;;;;;;5050325;28;20674;-62
2021/09/01 04:52:39;;;;;;;14.60;6.87;;;11.90;99.90;;;;;;5050610;28;20267;-62
2021/09/01 04:55:07;;;;;;;10.00;5.40;;;11.90;99.90;;;;;;5050689;28;20280;-62
2021/09/01 04:57:33;;;;;;;13.83;6.23;;;11.90;99.90;;;;;;5050671;28;20218;-62
2021/09/01 05:00:00;;;;;;;12.20;6.20;;;11.90;99.90;;;;;;5050477;28;20217;-62
2021/09/01 05:02:27;;;;;;;11.87;9.17;;;11.90;99.90;;;;;;5051257;28;20671;-62
2021/09/01 05:04:53;;;;;;;8.80;6.87;;;12.00;99.90;;;;;;5050636;28;20529;-62
2021/09/01 05:07:20;;;;;;;15.27;5.83;;;12.00;99.90;;;;;;5050562;28;20202;-62
2021/09/01 05:09:48;;;;;;;10.70;6.73;;;12.10;99.90;;;;;;5050771;28;20214;-62
2021/09/01 05:12:15;;;;;;;10.20;5.80;;;12.20;99.90;;;;;;5050655;28;20213;-62
2021/09/01 05:14:42;;;;;;;8.20;6.37;;;12.20;99.90;;;;;;5050171;28;20232;-60
2021/09/01 05:17:09;;;;;;;6.97;5.90;;;12.30;99.90;;;;;;5050420;28;20205;-61
2021/09/01 05:19:35;;;;;;;6.63;5.93;;;12.40;99.90;;;;;;5050203;28;20225;-61
2021/09/01 05:22:06;;;;;;;6.30;5.40;;;12.40;99.90;;;;;;5050155;28;20206;-61
2021/09/01 05:24:39;;;;;;;7.03;5.63;;;12.50;99.90;;;;;;5050163;28;20237;-62
2021/09/01 05:27:11;;;;;;;6.67;5.47;;;12.60;99.90;;;;;;5050392;28;20205;-62
2021/09/01 05:29:44;;;;;;;6.03;5.43;;;12.70;99.90;;;;;;5053169;28;20690;-62
2021/09/01 05:32:16;;;;;;;6.67;5.60;;;12.80;99.90;;;;;;5054374;28;20683;-61
2021/09/01 05:34:43;;;;;;;10.67;5.93;;;12.80;99.90;;;;;;5054230;28;20236;-61
2021/09/01 05:37:12;;;;;;;6.90;5.87;;;13.00;99.90;;;;;;5054546;28;20252;-61
2021/09/01 05:39:42;;;;;;;9.20;6.10;;;13.00;99.90;;;;;;5054032;28;20323;-61
2021/09/01 05:42:11;;;;;;;7.07;5.53;;;13.10;99.90;;;;;;5053698;28;20275;-61
2021/09/01 05:44:38;;;;;;;7.33;6.00;;;13.30;99.90;;;;;;5053202;28;20228;-61
2021/09/01 05:47:05;;;;;;;9.30;6.43;;;13.40;99.90;;;;;;5053937;28;20231;-61
2021/09/01 05:49:33;;;;;;;7.93;5.80;;;13.60;99.90;;;;;;5053729;28;20202;-61
2021/09/01 05:52:00;;;;;;;7.90;5.90;;;13.70;99.90;;;;;;5053940;28;20271;-61
2021/09/01 05:54:28;;;;;;;8.47;6.50;;;13.90;99.90;;;;;;5053706;28;20247;-61
2021/09/01 05:57:01;;;;;;;7.90;5.97;;;14.00;99.90;;;;;;5054033;28;20624;-61
2021/09/01 05:59:29;;;;;;;9.80;6.60;;;14.20;99.90;;;;;;5053742;28;20243;-61
2021/09/01 06:02:00;;;;;;;9.40;7.00;;;14.50;99.90;;;;;;5053774;28;20296;-61
2021/09/01 06:04:31;;;;;;;8.20;6.20;;;14.80;99.90;;;;;;5053796;28;20359;-62
2021/09/01 06:07:00;;;;;;;9.03;6.10;;;15.10;99.90;;;;;;5053693;28;20206;-61
2021/09/01 06:09:29;;;;;;;9.10;5.90;;;15.30;99.90;;;;;;5053195;28;20201;-62
2021/09/01 06:11:56;;;;;;;12.17;6.33;;;15.50;99.90;;;;;;5053927;28;20210;-62
2021/09/01 06:14:23;;;;;;;14.37;6.97;;;15.70;99.90;;;;;;5053395;28;20717;-62
2021/09/01 06:16:51;;;;;;;16.53;8.20;;;16.00;99.90;;;;;;5053676;28;20900;-61
2021/09/01 06:19:18;;;;;;;14.83;7.67;;;16.20;99.90;;;;;;5053388;28;20641;-62
2021/09/01 06:21:44;;;;;;;17.23;8.40;;;16.30;99.90;;;;;;5053769;28;20209;-62
2021/09/01 06:24:11;;;;;;;12.67;7.87;;;16.40;99.90;;;;;;5053331;28;20626;-61
2021/09/01 06:26:38;;;;;;;14.50;8.17;;;16.60;99.90;;;;;;5053908;28;20211;-62
2021/09/01 06:29:04;;;;;;;14.10;8.83;;;16.80;99.90;;;;;;5053625;28;20205;-62
2021/09/01 06:31:35;;;;;;;21.37;10.50;;;17.00;99.90;;;;;;5053517;28;20291;-63
2021/09/01 06:34:03;;;;;;;18.63;9.40;;;17.10;99.90;;;;;;5052830;28;20626;-64
2021/09/01 06:36:30;;;;;;;20.50;10.30;;;17.30;99.90;;;;;;5053027;28;20731;-63
2021/09/01 06:38:57;;;;;;;18.98;10.43;;;17.60;99.90;;;;;;5052967;28;20626;-61
2021/09/01 06:41:23;;;;;;;22.90;10.30;;;17.70;99.90;;;;;;5052383;28;20209;-61
2021/09/01 06:43:50;;;;;;;22.75;14.02;;;18.00;99.90;;;;;;5052665;28;20208;-62
2021/09/01 06:46:17;;;;;;;16.65;10.18;;;18.10;99.90;;;;;;5052885;28;20233;-61
2021/09/01 06:48:43;;;;;;;25.10;10.63;;;18.20;99.90;;;;;;5052651;28;20629;-61
2021/09/01 06:51:11;;;;;;;17.10;10.32;;;18.30;99.90;;;;;;5052713;28;20395;-62
2021/09/01 06:53:38;;;;;;;18.42;11.95;;;18.40;99.90;;;;;;5050349;28;20436;-63
2021/09/01 06:56:05;;;;;;;18.55;10.43;;;18.50;99.90;;;;;;5052938;28;20228;-63
2021/09/01 06:58:32;;;;;;;16.58;10.43;;;18.50;99.90;;;;;;5052804;28;20221;-63
2021/09/01 07:00:58;;;;;;;15.77;10.93;;;18.60;99.90;;;;;;5052815;28;20202;-64
2021/09/01 07:03:25;;;;;;;15.27;10.57;;;18.70;99.90;;;;;;5052735;28;20209;-63
2021/09/01 07:05:51;;;;;;;14.10;10.20;;;18.80;99.90;;;;;;5052668;28;20225;-63
2021/09/01 07:08:21;;;;;;;12.43;9.50;;;18.80;99.90;;;;;;5053660;28;20213;-64
2021/09/01 07:10:48;;;;;;;16.27;10.25;;;18.90;99.90;;;;;;5053379;28;20598;-64
2021/09/01 07:13:15;;;;;;;17.90;10.57;;;19.00;99.90;;;;;;5052939;28;20209;-63
2021/09/01 07:15:43;;;;;;;12.90;10.82;;;19.20;99.90;;;;;;5052408;28;20229;-64
2021/09/01 07:18:10;;;;;;;12.60;10.35;;;19.30;99.90;;;;;;5052128;28;20251;-64
2021/09/01 07:20:37;;;;;;;12.68;9.48;;;19.40;99.90;;;;;;5052233;28;20266;-64
2021/09/01 07:23:05;;;;;;;17.65;9.95;;;19.30;99.90;;;;;;5052392;28;20205;-64
2021/09/01 07:25:34;;;;;;;12.77;9.93;;;19.20;99.90;;;;;;5051757;28;20252;-64
2021/09/01 07:28:01;;;;;;;13.88;9.25;;;19.30;99.90;;;;;;5052155;28;20296;-64
2021/09/01 07:30:28;;;;;;;11.32;9.32;;;19.50;99.90;;;;;;5052264;28;20206;-64
2021/09/01 07:32:55;;;;;;;10.82;9.70;;;19.50;99.90;;;;;;5051924;28;20206;-64
2021/09/01 07:35:22;;;;;;;14.50;9.95;;;19.50;99.90;;;;;;5051804;28;20259;-64
2021/09/01 07:37:51;;;;;;;18.80;9.38;;;19.20;99.90;;;;;;5052356;28;20233;-64
2021/09/01 07:40:19;;;;;;;13.23;9.85;;;19.10;99.90;;;;;;5052093;28;20616;-64
2021/09/01 07:42:47;;;;;;;13.55;9.40;;;18.80;99.90;;;;;;5052099;28;20237;-64
2021/09/01 07:45:17;;;;;;;13.48;9.30;;;18.40;99.90;;;;;;5051574;28;20226;-64
2021/09/01 07:47:48;;;;;;;10.60;9.27;;;18.50;99.90;;;;;;5051461;28;20209;-65
2021/09/01 07:50:15;;;;;;;11.65;9.52;;;18.80;99.90;;;;;;5051950;28;20209;-65
2021/09/01 07:52:42;;;;;;;12.13;10.02;;;18.90;99.90;;;;;;5050795;28;20561;-63
2021/09/01 07:55:09;;;;;;;10.90;9.80;;;18.80;99.90;;;;;;5051527;28;20232;-65
2021/09/01 07:57:36;;;;;;;12.60;11.10;;;19.10;99.90;;;;;;5051632;28;20673;-67
2021/09/01 08:00:06;;;;;;;11.55;8.32;;;19.50;99.90;;;;;;5051341;28;20236;-63
2021/09/01 08:02:32;;;;;;;9.77;8.57;;;20.00;99.90;;;;;;5035305;28;20209;-64
2021/09/01 08:04:59;;;;;;;9.70;8.70;;;20.60;99.90;;;;;;5030411;28;20252;-65
2021/09/01 08:07:26;;;;;;;9.85;8.18;;;21.10;99.90;;;;;;5031309;28;20211;-64
2021/09/01 08:09:52;;;;;;;9.52;8.25;;;21.70;99.90;;;;;;5031359;28;20205;-66
2021/09/01 08:12:19;;;;;;;8.82;7.93;;;22.40;99.90;;;;;;5031374;28;20675;-65
2021/09/01 08:14:46;;;;;;;9.95;8.18;;;23.20;99.90;;;;;;5030957;28;20234;-65
2021/09/01 08:17:15;;;;;;;8.25;7.45;;;23.70;99.90;;;;;;5031314;28;20229;-65
2021/09/01 08:19:42;;;;;;;8.05;7.25;;;24.00;99.90;;;;;;5030864;28;20233;-65
2021/09/01 08:22:08;;;;;;;9.18;7.53;;;24.20;99.90;;;;;;5031309;28;20206;-65
2021/09/01 08:24:37;;;;;;;8.55;7.70;;;24.30;99.90;;;;;;5030864;28;20300;-65
2021/09/01 08:27:05;;;;;;;8.32;7.53;;;24.10;99.90;;;;;;5031026;28;20213;-65
2021/09/01 08:29:32;;;;;;;10.30;8.18;;;23.40;99.90;;;;;;5031338;28;20285;-66
2021/09/01 08:31:59;;;;;;;8.85;7.95;;;22.40;99.90;;;;;;5030900;28;20622;-66
2021/09/01 08:34:27;;;;;;;8.88;7.68;;;21.30;99.90;;;;;;5030752;28;20226;-65
2021/09/01 08:36:54;;;;;;;10.43;8.60;;;20.80;99.90;;;;;;5030931;28;20206;-65
2021/09/01 08:39:21;;;;;;;10.05;8.00;;;20.60;99.90;;;;;;5030685;28;20225;-65
2021/09/01 08:41:49;;;;;;;9.52;8.52;;;20.50;99.90;;;;;;5030722;28;20206;-65
2021/09/01 08:44:15;;;;;;;13.68;9.20;;;20.40;99.90;;;;;;5030599;28;20554;-66
2021/09/01 08:46:43;;;;;;;10.73;9.60;;;20.00;99.90;;;;;;5041296;28;20462;-66
2021/09/01 08:49:12;;;;;;;9.43;8.52;;;19.80;99.90;;;;;;5050413;28;20564;-68
2021/09/01 08:51:40;;;;;;;10.85;9.68;;;19.80;99.90;;;;;;5051397;28;20235;-66
2021/09/01 08:54:08;;;;;;;10.68;8.80;;;19.90;99.90;;;;;;5050209;28;20317;-67
2021/09/01 08:56:35;;;;;;;10.85;9.73;;;20.00;99.90;;;;;;5050346;28;20214;-65
2021/09/01 08:59:01;;;;;;;15.30;10.60;;;19.90;99.90;;;;;;5050193;28;20518;-65
2021/09/01 09:01:45;;;;;;;9.77;8.85;;;19.70;99.90;;;;;;5050700;28;20209;-66
2021/09/01 09:04:20;;;;;;;11.02;8.80;;;19.40;99.90;;;;;;5049831;28;20556;-65
2021/09/01 09:06:50;;;;;;;9.75;8.60;;;19.40;99.90;;;;;;5049912;28;20205;-69
2021/09/01 09:09:18;;;;;;;11.75;8.32;;;19.50;99.90;;;;;;5050494;28;20212;-68
2021/09/01 09:11:45;;;;;;;11.30;8.45;;;19.40;99.90;;;;;;5050408;28;20231;-69
2021/09/01 09:14:21;;;;;;;12.13;8.52;;;19.50;99.90;;;;;;5049975;28;20206;-69
2021/09/01 09:17:01;;;;;;;12.80;9.15;;;19.40;99.90;;;;;;5050214;28;20224;-66
2021/09/01 09:19:49;;;;;;;10.05;8.50;;;19.60;99.90;;;;;;5049863;28;20229;-68
2021/09/01 09:22:27;;;;;;;11.77;8.90;;;19.70;99.90;;;;;;5050386;28;20558;-66
2021/09/01 09:25:13;;;;;;;11.45;8.73;;;19.90;99.90;;;;;;5045486;28;20261;-64
2021/09/01 09:27:42;;;;;;;10.10;8.93;;;20.10;99.90;;;;;;5029844;28;20209;-64
2021/09/01 09:30:25;;;;;;;10.07;8.45;;;20.20;99.90;;;;;;5030415;28;20209;-65
2021/09/01 09:32:54;;;;;;;10.60;8.05;;;20.20;99.90;;;;;;5022029;28;20213;-67
2021/09/01 09:35:21;;;;;;;11.25;8.25;;;20.10;99.90;;;;;;5030503;28;20254;-67
2021/09/01 09:38:00;;;;;;;9.85;8.00;;;20.20;99.90;;;;;;5030327;28;20213;-67
2021/09/01 09:40:28;;;;;;;10.80;8.00;;;20.30;99.90;;;;;;5030562;28;20303;-68
2021/09/01 09:42:55;;;;;;;9.88;7.22;;;20.50;99.90;;;;;;5030567;28;20214;-67
2021/09/01 09:45:25;;;;;;;7.97;7.18;;;20.80;99.90;;;;;;5030196;28;20233;-69
2021/09/01 09:47:53;;;;;;;7.78;6.97;;;20.80;99.90;;;;;;5029741;28;20690;-68
2021/09/01 09:50:20;;;;;;;7.22;6.53;;;20.70;99.90;;;;;;5030124;28;20582;-66
2021/09/01 09:52:47;;;;;;;8.43;6.90;;;20.80;99.90;;;;;;5029870;28;20268;-68
2021/09/01 09:55:17;;;;;;;7.28;6.47;;;20.90;99.90;;;;;;5029622;28;20629;-66
2021/09/01 09:57:49;;;;;;;6.20;5.60;;;20.90;99.90;;;;;;5029785;28;20206;-67
2021/09/01 10:00:16;;;;;;;6.18;4.95;;;20.90;99.90;;;;;;5030013;28;20222;-66
2021/09/01 10:02:43;;;;;;;5.95;4.70;;;21.00;99.90;;;;;;5029734;28;20701;-67
2021/09/01 10:05:12;;;;;;;6.10;4.68;;;21.10;99.90;;;;;;5029491;28;20782;-68
2021/09/01 10:07:39;;;;;;;6.45;4.53;;;21.40;99.90;;;;;;5029406;28;20693;-68
2021/09/01 10:10:07;;;;;;;5.05;4.10;;;21.70;99.90;;;;;;5029836;28;20207;-68
2021/09/01 10:12:37;;;;;;;5.38;4.07;;;21.70;99.90;;;;;;5029730;28;20264;-70
2021/09/01 10:15:07;;;;;;;6.78;4.40;;;21.70;99.90;;;;;;5029936;28;20428;-67
2021/09/01 10:17:39;;;;;;;6.28;4.63;;;21.80;99.90;;;;;;5033041;28;20226;-66
2021/09/01 10:20:08;;;;;;;6.20;4.10;;;22.00;99.90;;;;;;5033393;28;20590;-70
2021/09/01 10:22:35;;;;;;;5.68;4.80;;;22.30;99.90;;;;;;5033775;28;20210;-68
2021/09/01 10:25:01;;;;;;;6.60;4.30;;;22.50;99.90;;;;;;5033399;28;20256;-69
2021/09/01 10:27:29;;;;;;;5.10;4.30;;;22.70;99.90;;;;;;5033608;28;20210;-69
2021/09/01 10:29:59;;;;;;;3.90;3.50;;;22.70;99.90;;;;;;5033408;28;20206;-69
2021/09/01 10:32:30;;;;;;;5.43;3.25;;;22.50;99.90;;;;;;5033352;28;20252;-68
2021/09/01 10:35:36;;;;;;;4.13;3.40;;;22.30;99.90;;;;;;5033226;28;20230;-68
2021/09/01 10:38:06;;;;;;;4.65;4.03;;;22.20;99.90;;;;;;5033059;28;20248;-68
2021/09/01 10:41:07;;;;;;;3.97;3.45;;;22.10;99.90;;;;;;5032885;28;20233;-68
2021/09/01 10:43:34;;;;;;;3.90;3.28;;;22.20;99.90;;;;;;5033030;28;20206;-68
2021/09/01 10:46:03;;;;;;;4.25;3.50;;;22.50;99.90;;;;;;5033009;28;20312;-67
2021/09/01 10:48:30;;;;;;;3.58;3.28;;;22.80;99.90;;;;;;5032987;28;20480;-68
2021/09/01 10:50:58;;;;;;;4.40;3.55;;;23.20;99.90;;;;;;5032917;28;20229;-68
2021/09/01 10:53:27;;;;;;;4.95;3.38;;;23.60;99.90;;;;;;5033258;28;20217;-68
2021/09/01 10:56:04;;;;;;;3.60;3.30;;;23.90;99.90;;;;;;5032917;28;20400;-69
2021/09/01 10:58:37;;;;;;;3.70;3.20;;;24.30;99.90;;;;;;5032563;28;20300;-68
2021/09/01 11:01:11;;;;;;;5.97;3.40;;;24.40;99.90;;;;;;5032721;28;20724;-70
2021/09/01 11:03:40;;;;;;;4.28;3.05;;;24.30;99.90;;;;;;5030092;28;20210;-70
2021/09/01 11:06:19;;;;;;;4.68;3.30;;;24.20;99.90;;;;;;5032607;28;20288;-67
2021/09/01 11:08:56;;;;;;;3.83;2.85;;;24.20;99.90;;;;;;5032947;28;20238;-68
2021/09/01 11:11:23;;;;;;;3.95;3.35;;;24.30;99.90;;;;;;5032543;28;20210;-69
2021/09/01 11:13:50;;;;;;;4.75;3.25;;;24.40;99.90;;;;;;5032023;28;20213;-69
2021/09/01 11:16:22;;;;;;;4.65;3.20;;;24.50;99.90;;;;;;5032320;28;20601;-68
2021/09/01 11:19:02;;;;;;;3.95;3.15;;;24.50;99.50;;;;;;5032134;28;20631;-65
2021/09/01 11:21:30;;;;;;;4.28;2.97;;;24.60;99.90;;;;;;5032111;28;20681;-67
2021/09/01 11:23:58;;;;;;;4.85;3.42;;;24.50;99.90;;;;;;5032228;28;20302;-68
2021/09/01 11:26:30;;;;;;;4.00;3.47;;;24.20;99.90;;;;;;5031660;28;20245;-68
2021/09/01 11:28:57;;;;;;;4.15;3.53;;;23.90;99.90;;;;;;5032374;28;20238;-66
2021/09/01 11:31:25;;;;;;;3.75;3.33;;;23.70;99.90;;;;;;5032439;28;20207;-68
2021/09/01 11:33:56;;;;;;;4.97;3.75;;;23.60;99.90;;;;;;5032179;28;20244;-68
2021/09/01 11:36:25;;;;;;;4.63;3.45;;;23.80;99.90;;;;;;5032621;28;20229;-69
2021/09/01 11:38:51;;;;;;;5.18;3.33;;;24.20;99.90;;;;;;5031412;28;20206;-67
2021/09/01 11:41:23;;;;;;;4.15;3.47;;;24.70;99.30;;;;;;5032068;28;20234;-67
2021/09/01 11:43:58;;;;;;;5.50;3.60;;;25.00;99.10;;;;;;5031695;28;20663;-68
2021/09/01 11:46:28;;;;;;;4.30;3.30;;;24.90;97.60;;;;;;5031669;28;20766;-66
2021/09/01 11:49:03;;;;;;;4.07;3.15;;;24.30;97.70;;;;;;5031731;28;20280;-65
2021/09/01 11:51:30;;;;;;;4.15;3.33;;;23.80;98.80;;;;;;5031619;28;20209;-67
2021/09/01 11:53:58;;;;;;;5.63;5.00;;;23.40;98.70;;;;;;5031602;28;20646;-67
2021/09/01 11:56:26;;;;;;;4.63;3.60;;;23.30;99.60;;;;;;5030887;28;20304;-65
2021/09/01 11:59:04;;;;;;;3.95;3.13;;;23.50;99.20;;;;;;5031768;28;20289;-66
2021/09/01 12:01:38;;;;;;;4.07;3.47;;;23.70;99.30;;;;;;5031010;28;20236;-65
2021/09/01 12:04:05;;;;;;;7.53;3.75;;;23.90;99.20;;;;;;5031640;28;20185;-65
2021/09/01 12:06:37;;;;;;;3.60;3.30;;;24.30;98.90;;;;;;5031613;28;20499;-66
2021/09/01 12:09:04;;;;;;;6.10;3.30;;;24.60;97.80;;;;;;5031226;28;20685;-66
2021/09/01 12:11:32;;;;;;;3.85;3.10;;;24.70;97.40;;;;;;5032104;28;20210;-66
2021/09/01 12:14:05;;;;;;;4.03;3.33;;;24.80;97.00;;;;;;5031302;28;20213;-64
2021/09/01 12:16:33;;;;;;;4.65;3.70;;;24.80;97.30;;;;;;5031227;28;20221;-65
2021/09/01 12:19:04;;;;;;;7.55;3.85;;;24.50;97.20;;;;;;5031695;28;20206;-66
2021/09/01 12:21:59;;;;;;;3.40;3.10;;;24.30;97.10;;;;;;5031461;28;20235;-64
2021/09/01 12:24:28;;;;;;;5.28;3.38;;;24.20;96.90;;;;;;5007244;28;20288;-66
2021/09/01 12:26:58;;;;;;;5.13;3.20;;;24.20;97.20;;;;;;5031323;28;20221;-65
2021/09/01 12:29:38;;;;;;;4.55;3.03;;;24.60;96.90;;;;;;5031166;28;20313;-65
2021/09/01 12:32:09;;;;;;;5.45;3.08;;;25.20;96.10;;;;;;5031391;28;20206;-66
2021/09/01 12:34:39;;;;;;;4.88;3.15;;;25.50;95.70;;;;;;5031068;28;20262;-65
2021/09/01 12:37:08;;;;;;;5.22;3.60;;;25.80;95.10;;;;;;5031015;28;20210;-65
2021/09/01 12:39:46;;;;;;;3.40;3.10;;;25.80;95.10;;;;;;5030375;28;20206;-66
2021/09/01 12:42:31;;;;;;;4.05;3.20;;;25.80;95.30;;;;;;5031430;28;20216;-66
2021/09/01 12:45:00;;;;;;;3.28;2.97;;;25.70;94.20;;;;;;5030774;28;20229;-65
2021/09/01 12:47:29;;;;;;;3.90;3.33;;;25.60;93.60;;;;;;5031076;28;20206;-66
2021/09/01 12:49:58;;;;;;;3.90;3.40;;;25.50;93.60;;;;;;5031322;28;20213;-65